AirNav   Air Wisconsin pilot careers
 
 993 users online  

4N1 Greenwood Lake Airport
West Milford, New Jersey, USA

GOING TO WEST MILFORD?


FAA INFORMATION EFFECTIVE 29 MARCH 2018

Location

FAA Identifier: 4N1
Lat/Long: 41-07-42.2000N / 074-20-47.5000W
41-07.703333N / 074-20.791667W
41.1283889 / -74.3465278
(estimated)
Elevation: 789.6 ft. / 240.7 m (surveyed)
Variation: 13W (1995)
From city: 1 mile E of WEST MILFORD, NJ
Time zone: UTC -4 (UTC -5 during Standard Time)
Zip code: 07480

Airport Operations

Airport use: Open to the public
Activation date: 06/1960
Control tower: no
ARTCC: NEW YORK CENTER
FSS: MILLVILLE FLIGHT SERVICE STATION
NOTAMs facility: MIV (NOTAM-D service available)
Attendance: 0800-1700
Pattern altitude: 1798.6 ft. MSL
Wind indicator: lighted
Segmented circle: no
Lights: ACTVT MIRL RY 06/24 - CTAF.
Beacon: white-green (lighted land airport)
Operates sunset to sunrise.

Airport Communications

CTAF: 122.9
NEW YORK APPROACH: 127.6
NEW YORK DEPARTURE: 127.6
WX ASOS at FWN (13 nm W): 118.525 (973-875-0859)
WX ASOS at CDW (15 nm S): PHONE 973-575-4417
WX AWOS-3 at MMU (20 nm S): PHONE 973-290-0135

Nearby radio navigation aids

VOR radial/distance  VOR name  Freq  Var
SAXr078/9.4SPARTA VORTAC115.7011W
HUOr158/20.2HUGUENOT VOR/DME116.1011W
TEBr334/21.2TETERBORO VOR/DME108.4011W
STWr082/24.9STILLWATER VOR/DME109.6011W
BWZr058/29.3BROADWAY VOR/DME114.2011W
LGAr326/29.9LA GUARDIA VOR/DME113.1012W
CMKr267/35.7CARMEL VOR/DME116.6012W
CRIr337/37.1CANARSIE VOR/DME112.3011W
SBJr039/37.3SOLBERG VOR/DME112.9010W
JFKr331/39.6KENNEDY VOR/DME115.9012W
IGNr228/39.9KINGSTON VOR/DME117.6012W

 
NDB name  Hdg/Dist  Freq  Var  ID
CHATHAM022/23.625413WCAT -.-. .- -
STANWYCK222/27.626112WSKU ... -.- ..-
BRIDGE340/39.741412WOGY --- --. -.--

Airport Services

Fuel available: 100LL JET-A
Parking: tiedowns
Airframe service: MAJOR
Powerplant service: MAJOR
Bottled oxygen: NONE
Bulk oxygen: NONE

Runway Information

Runway 6/24

Dimensions: 3471 x 60 ft. / 1058 x 18 m
Surface: asphalt, in good condition
Runway edge lights: medium intensity
RUNWAY 6  RUNWAY 24
Latitude: 41-07.510958N41-07.894688N
Longitude: 074-21.072025W074-20.511670W
Elevation: 789.3 ft.789.4 ft.
Gradient: 0.003% UP0.003% DOWN
Traffic pattern: rightleft
Runway heading: 061 magnetic, 048 true241 magnetic, 228 true
Markings: nonprecision, in good conditionnonprecision, in good condition
Visual slope indicator: 2-light PAPI on left (3.50 degrees glide path)
PAPI OPERATES CONTINOUSLY.
Runway end identifier lights: nono
Touchdown point: yes, no lightsyes, no lights
Obstructions: 192 ft. trees, 1988 ft. from runway, 170 ft. right of centerline, 9:1 slope to clear
TREES BELOW RWY END, CLIFF.
23 ft. tree, 680 ft. from runway, 132 ft. left of centerline, 20:1 slope to clear

Airport Ownership and Management from official FAA records

Ownership: Publicly-owned
Owner: N.J. DEPT. TRANSPORTATION
1035 PARKWAY AVE. P.O. BOX 610, PO BOX 600
TRENTON, NJ 08625
Phone 609-530-2900
Manager: TIM WAGNER
126A AIRPORT RD BOX 1
WEST MILFORD, NJ 07480
Phone 973-728-7721

Airport Operational Statistics

Aircraft based on the field: 58
Single engine airplanes: 52
Multi engine airplanes: 4
Helicopters: 1
Ultralights: 1
    
Aircraft operations: avg 38/day *
74% local general aviation
26% transient general aviation
* for 12-month period ending 31 December 2017

Additional Remarks

RY 06/24 STEEP ROCK LEDGES LCTD JUST BYD BOTH RY ENDS.
ARPT SUBJECT TO GUSTING WIND & FREQUENT CROSSWINDS.
SOME RY AND TY LGTS TALLER THAN STANDARD.
GCO AVBL ON FREQ 121.725 THRU NYAI FSS, IF UNABLE, CTC NEW YORK APCH AT 800-645-3206.
DEER AND BIRDS ON AND INVOF ARPT.

Instrument Procedures

NOTE: All procedures below are presented as PDF files. If you need a reader for these files, you should download the free Adobe Reader.

NOT FOR NAVIGATION. Please procure official charts for flight.
FAA instrument procedures published for use from 29 March 2018 at 0901Z to 26 April 2018 at 0900Z.

 
IAPs - Instrument Approach Procedures
RNAV (GPS) RWY 06   download (185KB)
RNAV (GPS) RWY 24   download (202KB)
NOTE: Special Take-Off Minimums/Departure Procedures apply   download (150KB)

Other nearby airports with instrument procedures:

N07 - Lincoln Park Airport (11 nm S)
KFWN - Sussex Airport (13 nm W)
KCDW - Essex County Airport (15 nm S)
06N - Randall Airport (18 nm N)
12N - Aeroflex-Andover Airport (19 nm W)
KMMU - Morristown Municipal Airport (20 nm S)
 
Loc | Ops | Rwys | IFR | FBO | Links
Com | Nav | Svcs | Stats | Notes

AirNav Hotels Sweepstakes
 
Area around 4N1 (Greenwood Lake Airport)
 
Road maps at: MapQuest Bing Google
 
Aerial photo
WARNING: Photo may not be current or correct
Aerial photo of 4N1 (Greenwood Lake Airport)
Photo by Wendy Silcox McPherson
Photo taken 17-Nov-2012
looking south.

Do you have a better or more recent aerial photo of Greenwood Lake Airport that you would like to share? If so, please send us your photo.

 
Sectional chart

 
Airport distance calculator
Flying to Greenwood Lake Airport? Find the distance to fly.

From to 4N1

Sunrise and sunset
Times for 25-Apr-2018
 Local
(UTC-4)
 Zulu
(UTC)
Morning civil twilight05:3509:35
Sunrise06:0410:04
Sunset19:4723:47
Evening civil twilight20:1600:16

Current date and time
Zulu (UTC)  26-Apr-2018 01:20:39
Local (UTC-4)  25-Apr-2018 21:20:39
 
METAR
KFWN 
14nm W 
260053Z AUTO 00000KT 5SM BR OVC008 14/14 A2968 RMK AO2 RAE2355 CIG 005V010 SLP049 P0001 T01440139
KCDW 
15nm S 
260053Z 00000KT 2SM BR OVC004 14/14 A2967 RMK AO2 SLP050 T01390139
K12N 
19nm W 
260054Z AUTO 00000KT 14/14 A2967 RMK AO1 SLP046 P0001 T01440139
KTEB 
21nm SE 
260051Z 04003KT 1SM R06/P6000FT BR OVC002 13/13 A2965 RMK AO2 SLP040 T01330133
KMMU 
21nm S 
260058Z 05003KT 2SM BR OVC004 14/14 A2967
KMGJ 
24nm N 
SuperAWOS
260054Z AUTO 35003KT 2 1/2SM -RA BR OVC003 14/13 A2966 RMK AO2 SLP043 P0000 T01390133
KSWF 
25nm NE 
260045Z 00000KT 1 1/2 SM BR OVC003 14/14 A2968
KNYC 
27nm SE 
260051Z AUTO 13004KT 1 1/2SM BR OVC003 13/13 A2969 RMK AO2 SLP043 T01330128
TAF
KTEB 
21nm SE 
252051Z 2521/2624 VRB04KT 1SM -DZ BR OVC004 TEMPO 2521/2523 2SM BR OVC005 FM252300 VRB04KT 1/2SM -DZ FG OVC003 FM260200 VRB03KT 1/2SM FG VCSH OVC003 FM260800 30007KT 3SM BR SCT005 OVC015 FM261000 29010KT P6SM FEW010 BKN025 FM261300 28012KT P6SM SCT035 SCT100 FM261600 27012G20KT P6SM SCT250
KSWF 
25nm NE 
252055Z 2521/2624 09007KT 2SM -DZ BR OVC004 FM252200 VRB05KT 1/2SM -DZ FG OVC002 FM260300 VRB05KT 1/4SM FG OVC004 FM260800 30007KT 3SM BR SCT004 OVC015 FM261000 29010KT P6SM FEW010 BKN025 FM261200 28012KT P6SM SCT035 SCT100 FM261500 27012G20KT P6SM SCT250 AMD NOT SKED
NOTAMs
Click for the latest NOTAMs
NOTAMs are issued by the DoD/FAA and will open in a separate window not controlled by AirNav.

 

 
 

FBO, Fuel Providers, and Aircraft Ground Support

  
 Business Name 
 
 Contact 
 
 Services / Description 
 
Fuel Prices
 
Comments
  
Greenwood Lake Airport Management 973-728-7721
[web site]
[email]
Airport management, Aviation fuel, Aircraft ground handling, Aircraft parking (ramp or tiedown), Hangars, Hangar leasing / sales, Passenger terminal and lounge, ...

More info about Greenwood Lake Airport Management
Phillips 66
100LL Jet A
FS $5.49 $5.29 
SS $5.09 --- 
 Updated 12-Apr-2018
  no comments
FS=Full service
SS=Self service
Update Fuel Prices
 

Getting Around: Taxi, Limo, Rental Cars, Mass Transit

  
 Business Name 
 
 Contact 
 
Services / Description
 
Comments
  
Comfort Auto 201-666-8622
[web site]
Rental cars, Rental cars on site

More info about Comfort Auto
 
   write
 

Would you like to see your business listed on this page?

 If your business provides an interesting product or service to pilots, flight crews, aircraft, or users of the Greenwood Lake Airport, you should consider listing it here.  To start the listing process, click on the button below
 
Add a business
 

Other Pages about Greenwood Lake Airport

Update a link
 
Copyright © AirNav, LLC. All rights reserved. Privacy Policy  Contact